createdAt,value
2023-04-03T04:21:05.511Z,1006.15
2023-04-03T04:21:39.650Z,1006.13
2023-04-03T04:22:39.620Z,1006.15
2023-04-03T04:23:39.648Z,1006.17
2023-04-03T04:24:40.056Z,1006.15
2023-04-03T04:25:40.603Z,1006.08
2023-04-03T04:26:39.597Z,1006.07
2023-04-03T04:27:39.580Z,1006.10
2023-04-03T04:28:39.580Z,1006.10
2023-04-03T04:29:39.561Z,1006.16
2023-04-03T04:30:39.601Z,1006.13
2023-04-03T04:31:39.568Z,1006.12
2023-04-03T04:32:40.573Z,1006.18
2023-04-03T04:33:39.555Z,1006.23
2023-04-03T04:34:39.584Z,1006.20
2023-04-03T04:35:40.031Z,1006.27
2023-04-03T04:36:39.654Z,1006.25
2023-04-03T04:37:39.513Z,1006.20
2023-04-03T04:38:39.539Z,1006.26
2023-04-03T04:39:39.496Z,1006.29
2023-04-03T04:40:39.870Z,1006.31
2023-04-03T04:41:39.563Z,1006.32
2023-04-03T04:42:39.468Z,1006.28
2023-04-03T04:43:39.483Z,1006.31
2023-04-03T04:44:39.472Z,1006.33
2023-04-03T04:45:39.677Z,1006.36
2023-04-03T04:46:39.520Z,1006.40
2023-04-03T04:47:39.524Z,1006.38
2023-04-03T04:48:39.458Z,1006.39
2023-04-03T04:49:39.452Z,1006.44
2023-04-03T04:50:39.422Z,1006.46
2023-04-03T04:51:51.072Z,1006.40
2023-04-03T04:52:41.463Z,1006.44
2023-04-03T04:53:39.424Z,1006.41
2023-04-03T04:54:39.433Z,1006.40
2023-04-03T04:55:39.437Z,1006.43
2023-04-03T04:56:39.676Z,1006.52
2023-04-03T04:57:39.459Z,1006.49
2023-04-03T04:58:39.762Z,1006.51
2023-04-03T04:59:39.354Z,1006.53
2023-04-03T05:00:39.345Z,1006.48
2023-04-03T05:01:39.396Z,1006.51
2023-04-03T05:02:39.393Z,1006.52
2023-04-03T05:03:39.353Z,1006.54
2023-04-03T05:04:39.356Z,1006.55
2023-04-03T05:05:39.902Z,1006.52
2023-04-03T05:06:39.400Z,1006.56
2023-04-03T05:07:39.359Z,1006.57
2023-04-03T05:08:39.323Z,1006.60
2023-04-03T05:09:39.305Z,1006.53
2023-04-03T05:10:40.320Z,1006.48
2023-04-03T05:11:39.312Z,1006.53
2023-04-03T05:12:39.263Z,1006.58
2023-04-03T05:13:39.292Z,1006.59
2023-04-03T05:14:39.265Z,1006.59
2023-04-03T05:15:39.548Z,1006.61
2023-04-03T05:16:39.286Z,1006.54
2023-04-03T05:17:39.303Z,1006.58
2023-04-03T05:18:40.251Z,1006.58
2023-04-03T05:19:39.231Z,1006.63
2023-04-03T05:20:39.219Z,1006.61
2023-04-03T05:21:39.240Z,1006.61
2023-04-03T05:22:39.241Z,1006.57
2023-04-03T05:23:39.223Z,1006.59
2023-04-03T05:24:39.243Z,1006.59
2023-04-03T05:25:39.269Z,1006.62
2023-04-03T05:26:39.171Z,1006.69
2023-04-03T05:27:39.185Z,1006.70
2023-04-03T05:28:39.175Z,1006.68
2023-04-03T05:29:39.297Z,1006.66
2023-04-03T05:30:39.160Z,1006.70
2023-04-03T05:31:39.206Z,1006.69
2023-04-03T05:32:39.203Z,1006.71
2023-04-03T05:33:39.138Z,1006.66
2023-04-03T05:34:39.176Z,1006.72
2023-04-03T05:35:39.490Z,1006.71
2023-04-03T05:36:39.124Z,1006.68
2023-04-03T05:37:39.108Z,1006.71
2023-04-03T05:38:39.097Z,1006.73
2023-04-03T05:39:39.076Z,1006.75
2023-04-03T05:40:39.088Z,1006.77
2023-04-03T05:41:39.066Z,1006.74
2023-04-03T05:42:39.064Z,1006.84
2023-04-03T05:43:39.094Z,1006.83
2023-04-03T05:44:39.072Z,1006.77
2023-04-03T05:45:39.097Z,1006.84
2023-04-03T05:46:39.040Z,1006.79
2023-04-03T05:47:39.056Z,1006.83
2023-04-03T05:48:39.029Z,1006.76
2023-04-03T05:49:39.030Z,1006.86
2023-04-03T05:50:39.009Z,1006.87
2023-04-03T05:51:39.007Z,1006.88
2023-04-03T05:52:39.012Z,1006.88
2023-04-03T05:53:38.995Z,1006.91
2023-04-03T05:54:39.006Z,1006.89
2023-04-03T05:55:39.291Z,1006.91
2023-04-03T05:56:38.957Z,1006.89
2023-04-03T05:57:39.084Z,1006.95
2023-04-03T05:58:38.964Z,1006.93
2023-04-03T05:59:38.941Z,1006.95
2023-04-03T06:00:38.963Z,1006.97
2023-04-03T06:01:39.060Z,1007.00
2023-04-03T06:02:39.016Z,1007.08
2023-04-03T06:03:40.301Z,1007.09
2023-04-03T06:04:40.001Z,1007.09
2023-04-03T06:05:39.068Z,1007.09
2023-04-03T06:06:38.908Z,1007.08
2023-04-03T06:07:38.916Z,1007.07
2023-04-03T06:08:38.903Z,1007.11
2023-04-03T06:09:38.880Z,1007.14
2023-04-03T06:10:39.058Z,1007.11
2023-04-03T06:11:38.880Z,1007.10
2023-04-03T06:12:38.880Z,1007.08
2023-04-03T06:13:38.879Z,1007.09
2023-04-03T06:14:38.852Z,1007.15
2023-04-03T06:15:38.848Z,1007.17
2023-04-03T06:16:39.878Z,1007.19
2023-04-03T06:17:39.865Z,1007.04
2023-04-03T06:18:38.942Z,1007.15
2023-04-03T06:19:38.802Z,1007.11
2023-04-03T06:20:39.011Z,1007.15
2023-04-03T06:21:38.825Z,1007.12
2023-04-03T06:22:38.856Z,1007.24
2023-04-03T06:23:38.795Z,1007.20
2023-04-03T06:24:38.767Z,1007.19
2023-04-03T06:25:38.798Z,1007.12
2023-04-03T06:26:39.702Z,1007.15
2023-04-03T06:27:38.745Z,1007.18
2023-04-03T06:28:38.852Z,1007.18
2023-04-03T06:29:38.730Z,1007.18
2023-04-03T06:30:39.169Z,1007.22
2023-04-03T06:31:38.825Z,1007.19
2023-04-03T06:32:38.780Z,1007.22
2023-04-03T06:33:38.718Z,1007.27
2023-04-03T06:34:38.708Z,1007.30
2023-04-03T06:35:38.737Z,1007.25
2023-04-03T06:36:38.744Z,1007.28
2023-04-03T06:37:38.701Z,1007.31
2023-04-03T06:38:38.718Z,1007.31
2023-04-03T06:39:38.737Z,1007.35
2023-04-03T06:40:38.989Z,1007.43
2023-04-03T06:41:38.727Z,1007.46
2023-04-03T06:42:38.743Z,1007.41
2023-04-03T06:43:38.707Z,1007.41
2023-04-03T06:44:38.704Z,1007.40
2023-04-03T06:45:38.870Z,1007.47
2023-04-03T06:46:38.833Z,1007.49
2023-04-03T06:47:38.682Z,1007.51
2023-04-03T06:48:38.708Z,1007.43
2023-04-03T06:49:38.676Z,1007.53
2023-04-03T06:50:39.597Z,1007.55
2023-04-03T06:51:38.584Z,1007.53
2023-04-03T06:52:38.583Z,1007.49
2023-04-03T06:53:38.598Z,1007.49
2023-04-03T06:54:38.589Z,1007.61
2023-04-03T06:55:38.672Z,1007.59
2023-04-03T06:56:38.583Z,1007.63
2023-04-03T06:57:38.598Z,1007.61
2023-04-03T06:58:38.553Z,1007.71
2023-04-03T06:59:38.558Z,1007.72
2023-04-03T07:00:38.533Z,1007.70
2023-04-03T07:01:38.561Z,1007.60
2023-04-03T07:02:38.589Z,1007.72
2023-04-03T07:03:38.813Z,1007.73
2023-04-03T07:04:38.554Z,1007.72
2023-04-03T07:05:38.661Z,1007.67
2023-04-03T07:06:38.502Z,1007.64
2023-04-03T07:07:38.502Z,1007.75
2023-04-03T07:08:38.468Z,1007.74
2023-04-03T07:09:38.493Z,1007.75
2023-04-03T07:10:38.469Z,1007.77
2023-04-03T07:11:38.451Z,1007.75
2023-04-03T07:12:38.450Z,1007.81
2023-04-03T07:13:38.436Z,1007.75
2023-04-03T07:14:38.451Z,1007.77
2023-04-03T07:15:38.583Z,1007.81
2023-04-03T07:16:40.903Z,1007.82
2023-04-03T07:17:38.441Z,1007.88
2023-04-03T07:18:38.393Z,1007.83
2023-04-03T07:19:38.419Z,1007.89
2023-04-03T07:20:38.380Z,1007.88
2023-04-03T07:21:38.396Z,1007.90
2023-04-03T07:22:38.373Z,1007.90
2023-04-03T07:23:38.380Z,1007.97
2023-04-03T07:24:38.391Z,1007.96
2023-04-03T07:25:38.669Z,1007.92
2023-04-03T07:26:39.161Z,1007.88
2023-04-03T07:27:38.343Z,1008.00
2023-04-03T07:28:38.340Z,1008.02
2023-04-03T07:29:38.334Z,1007.99
2023-04-03T07:30:38.325Z,1007.99
2023-04-03T07:31:38.327Z,1008.01
2023-04-03T07:32:38.354Z,1008.05
2023-04-03T07:33:38.393Z,1008.04
2023-04-03T07:34:38.322Z,1008.05
2023-04-03T07:35:38.646Z,1008.06
2023-04-03T07:36:38.279Z,1008.05
2023-04-03T07:37:38.279Z,1008.12
2023-04-03T07:38:38.286Z,1008.10
2023-04-03T07:39:38.291Z,1008.13
2023-04-03T07:40:38.252Z,1008.13
2023-04-03T07:41:38.262Z,1008.16
2023-04-03T07:42:38.328Z,1008.13
2023-04-03T07:43:39.208Z,1008.15
2023-04-03T07:44:38.240Z,1008.17
2023-04-03T07:45:38.379Z,1008.14
2023-04-03T07:46:38.213Z,1008.14
2023-04-03T07:47:38.297Z,1008.15
2023-04-03T07:48:38.228Z,1008.19
2023-04-03T07:49:38.205Z,1008.20
2023-04-03T07:50:38.185Z,1008.20
2023-04-03T07:51:38.175Z,1008.15
2023-04-03T07:52:39.208Z,1008.19
2023-04-03T07:53:38.179Z,1008.12
2023-04-03T07:54:38.175Z,1008.12
2023-04-03T07:55:38.555Z,1008.15
2023-04-03T07:56:38.168Z,1008.13
2023-04-03T07:57:38.169Z,1008.14
2023-04-03T07:58:38.128Z,1008.11
2023-04-03T07:59:38.150Z,1008.04
2023-04-03T08:00:38.114Z,1008.10
2023-04-03T08:01:38.115Z,1008.17
2023-04-03T08:02:38.172Z,1008.17
2023-04-03T08:03:38.375Z,1008.16
2023-04-03T08:04:38.341Z,1008.15
2023-04-03T08:05:38.378Z,1008.16
2023-04-03T08:06:46.520Z,1008.15
2023-04-03T08:07:40.072Z,1008.14
2023-04-03T08:08:38.075Z,1008.16
2023-04-03T08:09:38.086Z,1008.25
2023-04-03T08:10:38.049Z,1008.15
2023-04-03T08:11:38.027Z,1008.17
2023-04-03T08:12:38.040Z,1008.12
2023-04-03T08:13:38.027Z,1008.15
2023-04-03T08:14:38.046Z,1008.17
2023-04-03T08:15:38.135Z,1008.21
2023-04-03T08:16:38.166Z,1008.21
2023-04-03T08:17:38.016Z,1008.22
2023-04-03T08:18:37.984Z,1008.21
2023-04-03T08:19:37.997Z,1008.21
2023-04-03T08:20:38.007Z,1008.23
2023-04-03T08:21:37.977Z,1008.12
2023-04-03T08:22:37.980Z,1008.14
2023-04-03T08:23:37.982Z,1008.12
2023-04-03T08:24:41.086Z,1008.17
2023-04-03T08:25:39.275Z,1008.16
2023-04-03T08:26:37.937Z,1008.14
2023-04-03T08:27:37.936Z,1008.19
2023-04-03T08:28:37.937Z,1008.20
2023-04-03T08:29:37.934Z,1008.18
2023-04-03T08:30:37.923Z,1008.12
2023-04-03T08:31:37.911Z,1008.16
2023-04-03T08:32:37.935Z,1008.12
2023-04-03T08:33:37.937Z,1008.13
2023-04-03T08:34:37.895Z,1008.14
2023-04-03T08:35:38.251Z,1008.15
2023-04-03T08:36:38.870Z,1008.12
2023-04-03T08:37:37.872Z,1008.10
2023-04-03T08:38:37.869Z,1008.12
2023-04-03T08:39:37.941Z,1008.10
2023-04-03T08:40:37.842Z,1008.13
2023-04-03T08:41:37.843Z,1008.10
2023-04-03T08:42:37.836Z,1008.07
2023-04-03T08:43:37.843Z,1008.08
2023-04-03T08:44:39.179Z,1008.02
2023-04-03T08:45:38.033Z,1008.01
2023-04-03T08:46:37.896Z,1008.12
2023-04-03T08:47:37.877Z,1008.09
2023-04-03T08:48:37.796Z,1008.08
2023-04-03T08:49:37.873Z,1008.08
2023-04-03T08:50:37.813Z,1008.11
2023-04-03T08:51:37.821Z,1008.05
2023-04-03T08:52:37.891Z,1008.05
2023-04-03T08:53:37.845Z,1008.09
2023-04-03T08:54:37.784Z,1008.07
2023-04-03T08:55:37.959Z,1007.95
2023-04-03T08:56:37.746Z,1007.97
2023-04-03T08:57:37.776Z,1007.99
2023-04-03T08:58:37.759Z,1007.98
2023-04-03T08:59:37.762Z,1007.97
2023-04-03T09:00:37.743Z,1007.92
2023-04-03T09:01:37.827Z,1007.95
2023-04-03T09:02:37.839Z,1007.90
2023-04-03T09:03:38.838Z,1007.92
2023-04-03T09:04:37.727Z,1007.97
2023-04-03T09:05:37.943Z,1007.94
2023-04-03T09:06:38.744Z,1007.95
2023-04-03T09:07:37.666Z,1007.94
2023-04-03T09:08:37.747Z,1007.96
2023-04-03T09:09:37.670Z,1007.94
2023-04-03T09:10:37.815Z,1007.95
2023-04-03T09:11:37.652Z,1007.95
2023-04-03T09:12:37.630Z,1007.93
2023-04-03T09:13:37.627Z,1007.97
2023-04-03T09:14:37.635Z,1007.97
2023-04-03T09:15:39.341Z,1007.96
2023-04-03T09:16:38.619Z,1007.95
2023-04-03T09:17:37.658Z,1007.97
2023-04-03T09:18:37.586Z,1007.90
2023-04-03T09:19:37.640Z,1007.96
2023-04-03T09:20:37.876Z,1007.90
2023-04-03T09:21:37.603Z,1007.87
2023-04-03T09:22:45.625Z,1007.91
2023-04-03T09:23:39.566Z,1007.95
2023-04-03T09:24:37.667Z,1007.86
2023-04-03T09:25:37.587Z,1007.89
2023-04-03T09:26:37.538Z,1007.89
2023-04-03T09:27:37.609Z,1007.81
2023-04-03T09:28:43.145Z,1007.82
2023-04-03T09:29:39.611Z,1007.93
2023-04-03T09:30:37.714Z,1007.86
2023-04-03T09:31:38.709Z,1007.84
2023-04-03T09:32:37.593Z,1007.77
2023-04-03T09:33:37.476Z,1007.83
2023-04-03T09:34:37.504Z,1007.81
2023-04-03T09:35:47.380Z,1007.78
2023-04-03T09:36:39.479Z,1007.81
2023-04-03T09:37:39.028Z,1007.85
2023-04-03T09:38:37.454Z,1007.83
2023-04-03T09:39:37.482Z,1007.83
2023-04-03T09:40:37.836Z,1007.77
2023-04-03T09:41:37.435Z,1007.74
2023-04-03T09:42:37.457Z,1007.79
2023-04-03T09:43:37.459Z,1007.72
2023-04-03T09:44:37.491Z,1007.73
2023-04-03T09:45:37.428Z,1007.77
2023-04-03T09:46:37.454Z,1007.78
2023-04-03T23:57:32.256Z,1005.88
2023-04-03T23:58:31.853Z,1005.83
2023-04-03T23:59:32.028Z,1005.86
